createdAt,value
2019-02-25T00:02:28.964Z,8.67
2019-02-25T00:05:02.249Z,8.43
2019-02-25T00:07:35.585Z,10.73
2019-02-25T00:10:09.761Z,9.53
2019-02-25T00:12:43.043Z,7.73
2019-02-25T00:15:16.404Z,8.70
2019-02-25T00:17:49.681Z,15.87
2019-02-25T00:20:22.975Z,9.87
2019-02-25T00:22:56.234Z,9.87
2019-02-25T00:25:29.518Z,8.40
2019-02-25T00:28:02.785Z,9.50
2019-02-25T00:30:36.071Z,8.83
2019-02-25T00:33:09.330Z,11.17
2019-02-25T00:35:42.614Z,8.43
2019-02-25T00:38:15.875Z,8.83
2019-02-25T00:40:49.156Z,9.27
2019-02-25T00:43:22.409Z,8.80
2019-02-25T00:45:55.686Z,8.30
2019-02-25T00:48:28.939Z,7.63
2019-02-25T00:51:02.231Z,9.13
2019-02-25T00:53:35.483Z,8.97
2019-02-25T00:56:09.036Z,12.13
2019-02-25T00:58:42.305Z,8.53
2019-02-25T01:01:15.672Z,8.63
2019-02-25T01:03:48.950Z,9.87
2019-02-25T01:06:22.292Z,7.97
2019-02-25T01:08:55.573Z,9.33
2019-02-25T01:11:28.934Z,6.67
2019-02-25T01:14:02.196Z,5.47
2019-02-25T01:16:35.489Z,5.77
2019-02-25T01:19:08.754Z,5.33
2019-02-25T01:21:42.056Z,5.70
2019-02-25T01:24:15.325Z,6.10
2019-02-25T01:26:48.592Z,5.97
2019-02-25T01:29:21.862Z,5.83
2019-02-25T01:31:55.133Z,5.87
2019-02-25T01:34:28.410Z,6.07
2019-02-25T01:37:01.693Z,6.20
2019-02-25T01:39:34.976Z,6.93
2019-02-25T01:42:08.266Z,6.17
2019-02-25T01:44:41.527Z,6.00
2019-02-25T01:47:14.813Z,6.40
2019-02-25T01:49:48.082Z,6.30
2019-02-25T01:52:21.357Z,7.97
2019-02-25T01:54:54.643Z,6.10
2019-02-25T01:57:27.925Z,5.53
2019-02-25T02:00:01.361Z,7.37
2019-02-25T02:02:34.557Z,5.60
2019-02-25T02:05:07.906Z,8.03
2019-02-25T02:07:41.177Z,3.83
2019-02-25T02:10:15.796Z,6.20
2019-02-25T02:12:49.146Z,7.93
2019-02-25T02:15:22.523Z,8.17
2019-02-25T02:17:55.809Z,6.23
2019-02-25T02:20:29.113Z,5.53
2019-02-25T02:23:02.393Z,6.83
2019-02-25T02:25:35.725Z,5.63
2019-02-25T02:28:09.003Z,8.33
2019-02-25T02:30:42.345Z,6.30
2019-02-25T02:33:15.639Z,6.50
2019-02-25T02:35:48.937Z,5.10
2019-02-25T02:38:22.241Z,6.13
2019-02-25T02:40:55.530Z,8.93
2019-02-25T02:43:28.804Z,6.60
2019-02-25T02:46:08.065Z,5.70
2019-02-25T02:48:50.386Z,5.90
2019-02-25T02:51:23.708Z,6.23
2019-02-25T02:53:56.967Z,5.13
2019-02-25T02:56:30.283Z,6.90
2019-02-25T02:59:03.761Z,5.73
2019-02-25T03:01:37.046Z,6.40
2019-02-25T03:04:10.328Z,6.30
2019-02-25T03:06:43.646Z,6.90
2019-02-25T03:09:16.914Z,5.93
2019-02-25T03:11:50.212Z,7.60
2019-02-25T03:14:23.497Z,8.20
2019-02-25T03:16:56.789Z,7.23
2019-02-25T03:19:30.067Z,7.83
2019-02-25T03:22:03.354Z,8.43
2019-02-25T03:24:36.629Z,7.90
2019-02-25T03:27:09.924Z,10.37
2019-02-25T03:29:43.200Z,7.67
2019-02-25T03:32:16.488Z,8.90
2019-02-25T03:34:49.773Z,7.27
2019-02-25T03:37:23.096Z,6.77
2019-02-25T03:39:56.364Z,6.63
2019-02-25T03:42:29.696Z,8.20
2019-02-25T03:45:03.406Z,8.17
2019-02-25T03:47:36.766Z,8.33
2019-02-25T03:50:10.216Z,8.90
2019-02-25T03:52:43.568Z,7.43
2019-02-25T03:55:21.553Z,8.73
2019-02-25T03:57:54.858Z,9.73
2019-02-25T04:00:28.200Z,9.67
2019-02-25T04:03:01.531Z,9.63
2019-02-25T04:05:34.894Z,10.83
2019-02-25T04:08:08.185Z,8.57
2019-02-25T04:10:41.464Z,7.50
2019-02-25T04:13:14.765Z,6.73
2019-02-25T04:15:48.141Z,6.70
2019-02-25T04:18:21.433Z,8.03
2019-02-25T04:20:54.718Z,7.60
2019-02-25T04:23:28.030Z,8.17
2019-02-25T04:26:01.302Z,6.97
2019-02-25T04:28:34.608Z,8.50
2019-02-25T04:31:07.898Z,10.90
2019-02-25T04:33:41.186Z,7.60
2019-02-25T04:36:14.459Z,6.77
2019-02-25T04:38:47.768Z,7.17
2019-02-25T04:41:21.033Z,8.47
2019-02-25T04:43:54.338Z,7.70
2019-02-25T04:46:27.630Z,8.33
2019-02-25T04:49:00.920Z,6.83
2019-02-25T04:51:34.187Z,7.97
2019-02-25T04:54:07.482Z,7.60
2019-02-25T04:56:40.784Z,12.33
2019-02-25T04:59:14.089Z,8.00
2019-02-25T05:01:47.374Z,11.37
2019-02-25T05:04:20.700Z,7.80
2019-02-25T05:06:53.949Z,6.70
2019-02-25T05:09:27.371Z,7.37
2019-02-25T05:12:00.680Z,7.50
2019-02-25T05:14:33.966Z,10.83
2019-02-25T05:17:07.279Z,8.87
2019-02-25T05:19:40.543Z,8.00
2019-02-25T05:22:13.840Z,7.97
2019-02-25T05:24:47.155Z,8.47
2019-02-25T05:27:20.442Z,7.57
2019-02-25T05:29:53.736Z,8.93
2019-02-25T05:32:27.035Z,12.57
2019-02-25T05:35:00.493Z,8.47
2019-02-25T05:37:33.740Z,9.97
2019-02-25T05:40:18.078Z,12.07
2019-02-25T05:42:51.455Z,7.20
2019-02-25T05:45:24.743Z,10.10
2019-02-25T05:47:58.059Z,9.13
2019-02-25T05:50:31.344Z,9.20
2019-02-25T05:53:05.013Z,11.80
2019-02-25T05:55:38.308Z,8.63
2019-02-25T05:58:11.622Z,14.10
2019-02-25T06:00:44.918Z,15.00
2019-02-25T06:03:18.216Z,9.73
2019-02-25T06:05:51.504Z,13.13
2019-02-25T06:08:24.798Z,12.30
2019-02-25T06:10:58.099Z,10.97
2019-02-25T06:13:31.393Z,10.27
2019-02-25T06:16:04.754Z,9.40
2019-02-25T06:18:39.170Z,12.77
2019-02-25T06:21:12.528Z,11.17
2019-02-25T06:23:45.857Z,9.07
2019-02-25T06:26:19.150Z,9.73
2019-02-25T06:28:52.448Z,12.07
2019-02-25T06:31:25.791Z,18.73
2019-02-25T06:33:59.092Z,14.60
2019-02-25T06:36:32.370Z,9.77
2019-02-25T06:39:06.661Z,10.80
2019-02-25T06:41:39.925Z,15.13
2019-02-25T06:44:13.270Z,15.03
2019-02-25T06:46:46.560Z,14.83
2019-02-25T06:49:19.885Z,16.47
2019-02-25T06:51:53.169Z,13.83
2019-02-25T06:54:26.495Z,12.77
2019-02-25T06:56:59.808Z,14.13
2019-02-25T06:59:33.156Z,14.70
2019-02-25T07:02:06.527Z,12.73
2019-02-25T07:04:50.782Z,11.97
2019-02-25T07:07:25.688Z,19.70
2019-02-25T07:10:03.523Z,19.17
2019-02-25T07:12:41.120Z,17.80
2019-02-25T07:15:16.051Z,16.67
2019-02-25T07:17:56.762Z,14.33
2019-02-25T07:20:31.759Z,12.37
2019-02-25T07:23:06.749Z,14.07
2019-02-25T07:25:41.690Z,16.33
2019-02-25T07:28:22.411Z,12.30
2019-02-25T07:31:05.884Z,13.07
2019-02-25T07:33:43.610Z,13.00
2019-02-25T07:36:24.555Z,11.07
2019-02-25T07:39:14.581Z,13.47
2019-02-25T07:42:05.397Z,10.03
2019-02-25T07:44:42.823Z,12.33
2019-02-25T07:47:26.743Z,13.17
2019-02-25T07:50:01.679Z,14.57
2019-02-25T07:52:51.845Z,8.77
2019-02-25T07:55:26.776Z,12.17
2019-02-25T07:58:04.670Z,13.60
2019-02-25T08:00:39.625Z,10.67
2019-02-25T08:03:17.203Z,12.40
2019-02-25T08:06:08.294Z,11.83
2019-02-25T08:08:59.282Z,15.33
2019-02-25T08:11:40.189Z,11.57
2019-02-25T08:14:17.765Z,12.63
2019-02-25T08:16:55.507Z,14.47
2019-02-25T08:19:46.994Z,10.70
2019-02-25T08:22:25.051Z,13.77
2019-02-25T08:25:05.863Z,11.30
2019-02-25T08:27:40.824Z,16.73
2019-02-25T08:30:30.887Z,10.27
2019-02-25T08:33:14.915Z,10.67
2019-02-25T08:35:53.031Z,9.93
2019-02-25T08:38:44.403Z,12.10
2019-02-25T08:41:34.663Z,11.90
2019-02-25T08:44:21.592Z,13.60
2019-02-25T08:46:56.526Z,15.40
2019-02-25T08:49:31.546Z,12.43
2019-02-25T08:52:04.896Z,14.13
2019-02-25T08:54:38.209Z,17.23
2019-02-25T08:57:11.573Z,13.33
2019-02-25T08:59:44.883Z,13.10
2019-02-25T09:02:18.177Z,16.37
2019-02-25T09:04:51.464Z,10.20
2019-02-25T09:07:24.749Z,13.97
2019-02-25T09:09:58.044Z,16.37
2019-02-25T09:12:31.333Z,10.53
2019-02-25T09:15:07.452Z,10.70
2019-02-25T09:17:42.518Z,10.27
2019-02-25T09:20:16.289Z,12.57
2019-02-25T09:22:49.559Z,11.53
2019-02-25T09:25:22.859Z,11.13
2019-02-25T09:27:56.149Z,10.70
2019-02-25T09:30:29.456Z,10.77
2019-02-25T09:33:02.724Z,11.03
2019-02-25T09:35:36.044Z,11.07
2019-02-25T09:38:09.348Z,14.57
2019-02-25T09:40:42.648Z,8.77
2019-02-25T09:43:15.946Z,10.13
2019-02-25T09:45:49.345Z,11.23
2019-02-25T09:48:22.649Z,9.90
2019-02-25T09:50:55.945Z,11.90
2019-02-25T09:53:29.246Z,10.87
2019-02-25T09:56:02.574Z,10.07
2019-02-25T09:58:35.862Z,7.43
2019-02-25T10:01:09.404Z,10.47
2019-02-25T10:03:42.683Z,9.97
2019-02-25T10:06:16.029Z,11.23
2019-02-25T10:08:49.306Z,10.67
2019-02-25T10:11:22.623Z,8.60
2019-02-25T10:13:56.061Z,10.20
2019-02-25T10:16:29.315Z,10.67
2019-02-25T10:19:02.604Z,9.17
2019-02-25T10:21:35.887Z,8.67
2019-02-25T10:24:09.281Z,9.27
2019-02-25T10:26:42.573Z,11.20
2019-02-25T10:29:15.910Z,9.63
2019-02-25T10:31:49.178Z,9.07
2019-02-25T10:34:24.073Z,9.73
2019-02-25T10:36:57.507Z,10.67
2019-02-25T10:39:30.833Z,8.13
2019-02-25T10:42:04.124Z,10.43
2019-02-25T10:44:38.181Z,8.70
2019-02-25T10:47:13.575Z,11.37
2019-02-25T10:49:47.543Z,8.20
2019-02-25T10:52:20.859Z,7.73
2019-02-25T10:54:56.101Z,8.60
2019-02-25T10:57:31.354Z,9.33
2019-02-25T11:00:07.385Z,9.30
2019-02-25T11:02:44.462Z,11.77
2019-02-25T11:05:18.914Z,11.27
2019-02-25T11:07:52.046Z,11.77
2019-02-25T11:10:26.995Z,11.13
2019-02-25T11:13:02.071Z,11.90
2019-02-25T11:15:37.522Z,10.60
2019-02-25T11:18:11.592Z,10.57
2019-02-25T11:20:44.898Z,7.83
2019-02-25T11:23:19.446Z,10.50
2019-02-25T11:25:53.717Z,8.40
2019-02-25T11:28:28.313Z,9.33
2019-02-25T11:31:01.680Z,11.97
2019-02-25T11:33:35.277Z,15.10
2019-02-25T11:36:10.434Z,11.57
2019-02-25T11:38:43.854Z,9.43
2019-02-25T11:41:17.172Z,8.53
2019-02-25T11:43:52.967Z,10.03
2019-02-25T11:46:25.596Z,9.27
2019-02-25T11:48:59.014Z,12.40
2019-02-25T11:51:32.368Z,8.27
2019-02-25T11:54:05.739Z,9.47
2019-02-25T11:56:39.058Z,7.87
2019-02-25T11:59:12.367Z,9.97
2019-02-25T12:01:45.746Z,10.07
2019-02-25T12:04:19.052Z,10.00
2019-02-25T12:06:52.424Z,9.73
2019-02-25T12:09:25.789Z,7.70
2019-02-25T12:11:59.106Z,8.40
2019-02-25T12:14:32.406Z,7.80
2019-02-25T12:17:05.770Z,10.13
2019-02-25T12:19:39.078Z,7.60
2019-02-25T12:22:12.381Z,8.90
2019-02-25T12:24:45.679Z,7.40
2019-02-25T12:27:19.009Z,7.63
2019-02-25T12:29:52.316Z,9.07
2019-02-25T12:32:25.949Z,8.73
2019-02-25T12:34:59.242Z,7.83
2019-02-25T12:37:32.537Z,8.30
2019-02-25T12:40:09.000Z,8.40
2019-02-25T12:42:42.308Z,7.00
2019-02-25T12:45:16.048Z,11.60
2019-02-25T12:47:49.365Z,7.50
2019-02-25T12:50:22.684Z,5.50
2019-02-25T12:52:56.019Z,9.07
2019-02-25T12:55:29.298Z,5.87
2019-02-25T12:58:02.585Z,9.70
2019-02-25T13:00:35.860Z,5.80
2019-02-25T13:03:09.192Z,5.07
2019-02-25T13:05:42.502Z,7.57
2019-02-25T13:08:15.814Z,6.37
2019-02-25T13:10:49.106Z,8.97
2019-02-25T13:13:22.408Z,7.67
2019-02-25T13:15:55.732Z,8.43
2019-02-25T13:18:29.024Z,6.13
2019-02-25T13:21:02.314Z,7.03
2019-02-25T13:23:35.639Z,6.60
2019-02-25T13:26:08.932Z,5.40
2019-02-25T13:28:42.187Z,7.43
2019-02-25T13:31:15.521Z,11.00
2019-02-25T13:33:48.843Z,6.97
2019-02-25T13:36:22.223Z,8.40
2019-02-25T13:38:55.573Z,9.07
2019-02-25T13:41:28.832Z,8.97
2019-02-25T13:44:02.164Z,7.73
2019-02-25T13:46:35.612Z,6.03
2019-02-25T13:49:08.940Z,5.43
2019-02-25T13:51:42.242Z,5.83
2019-02-25T13:54:15.548Z,6.63
2019-02-25T13:56:48.881Z,7.70
2019-02-25T13:59:22.223Z,6.40
2019-02-25T14:01:55.543Z,7.83
2019-02-25T14:04:28.845Z,5.80
2019-02-25T14:07:02.122Z,8.93
2019-02-25T14:09:35.524Z,8.57
2019-02-25T14:12:09.363Z,6.63
2019-02-25T14:14:42.637Z,5.30
2019-02-25T14:17:15.944Z,4.60
2019-02-25T14:19:49.221Z,9.13
2019-02-25T14:22:22.525Z,5.83
2019-02-25T14:24:56.735Z,8.10
2019-02-25T14:27:30.287Z,7.00
2019-02-25T14:30:04.314Z,4.90
2019-02-25T14:32:37.830Z,4.97
2019-02-25T14:35:11.190Z,5.17
2019-02-25T14:37:44.512Z,7.90
2019-02-25T14:40:21.325Z,5.60
2019-02-25T14:42:56.698Z,5.07
2019-02-25T14:45:33.509Z,5.17
2019-02-25T14:48:08.168Z,5.43
2019-02-25T14:50:41.819Z,4.93
2019-02-25T14:53:15.334Z,5.07
2019-02-25T14:55:50.358Z,7.13
2019-02-25T14:58:23.794Z,5.50
2019-02-25T15:00:57.116Z,5.03
2019-02-25T15:03:30.492Z,4.87
2019-02-25T15:06:03.782Z,6.60
2019-02-25T15:08:37.148Z,6.67
2019-02-25T15:11:11.383Z,5.87
2019-02-25T15:13:45.455Z,4.73
2019-02-25T15:16:18.829Z,4.47
2019-02-25T15:18:52.201Z,5.30
2019-02-25T15:21:25.487Z,5.10
2019-02-25T15:24:00.515Z,6.70
2019-02-25T15:26:42.655Z,6.77
2019-02-25T15:29:09.323Z,5.83
2019-02-25T15:31:44.426Z,4.90
2019-02-25T15:34:19.284Z,4.83
2019-02-25T15:36:52.674Z,5.67
2019-02-25T15:39:26.443Z,6.20
2019-02-25T15:41:59.693Z,4.70
2019-02-25T15:44:33.086Z,6.13
2019-02-25T15:47:08.253Z,7.67
2019-02-25T15:49:41.785Z,5.17
2019-02-25T15:52:18.362Z,6.53
2019-02-25T15:54:50.212Z,5.47
2019-02-25T15:57:24.562Z,8.70
2019-02-25T15:59:58.629Z,6.50
2019-02-25T16:02:31.965Z,7.13
2019-02-25T16:05:09.624Z,6.13
2019-02-25T16:07:43.370Z,6.73
2019-02-25T16:10:17.255Z,7.17
2019-02-25T16:12:51.239Z,4.67
2019-02-25T16:15:25.711Z,7.23
2019-02-25T16:17:58.989Z,4.87
2019-02-25T16:20:32.709Z,5.87
2019-02-25T16:23:08.261Z,8.20
2019-02-25T16:25:41.403Z,9.43
2019-02-25T16:28:15.693Z,6.63
2019-02-25T16:30:51.332Z,7.13
2019-02-25T16:33:25.984Z,6.97
2019-02-25T16:36:01.268Z,7.13
2019-02-25T16:38:36.399Z,7.60
2019-02-25T16:41:10.320Z,8.53
2019-02-25T16:43:43.797Z,8.33
2019-02-25T16:46:18.446Z,10.13
2019-02-25T16:48:53.363Z,7.10
2019-02-25T16:51:28.118Z,9.80
2019-02-25T16:54:06.731Z,8.83
2019-02-25T16:56:37.621Z,5.73
2019-02-25T16:59:11.794Z,8.47
2019-02-25T17:01:46.121Z,5.70
2019-02-25T17:04:22.546Z,9.97
2019-02-25T17:06:55.721Z,7.87
2019-02-25T17:09:31.938Z,8.47
2019-02-25T17:12:06.856Z,9.90
2019-02-25T17:14:41.027Z,11.03
2019-02-25T17:17:14.425Z,8.97
2019-02-25T17:19:47.748Z,7.20
2019-02-25T17:22:21.152Z,9.37
2019-02-25T17:24:56.509Z,13.40
2019-02-25T17:27:29.509Z,8.97
2019-02-25T17:30:02.767Z,7.97
2019-02-25T17:32:37.838Z,8.77
2019-02-25T17:35:13.338Z,12.30
2019-02-25T17:37:46.742Z,10.07
2019-02-25T17:40:20.235Z,9.83
2019-02-25T17:42:54.547Z,8.63
2019-02-25T17:45:34.028Z,7.83
2019-02-25T17:48:08.383Z,9.93
2019-02-25T17:50:41.968Z,9.93
2019-02-25T17:53:15.247Z,14.17
2019-02-25T17:55:50.721Z,8.90
2019-02-25T17:58:24.131Z,9.13
2019-02-25T18:00:59.252Z,10.57
2019-02-25T18:03:32.466Z,7.37
2019-02-25T18:06:07.501Z,11.40
2019-02-25T18:08:41.042Z,9.90
2019-02-25T18:11:15.768Z,10.77
2019-02-25T18:13:51.185Z,8.37
2019-02-25T18:16:24.499Z,9.83
2019-02-25T18:18:57.822Z,9.77
2019-02-25T18:21:31.186Z,10.90
2019-02-25T18:24:04.654Z,7.17
2019-02-25T18:26:37.938Z,8.77
2019-02-25T18:29:12.673Z,6.47
2019-02-25T18:31:46.352Z,6.03
2019-02-25T18:34:19.771Z,8.13
2019-02-25T18:36:53.750Z,6.80
2019-02-25T18:39:29.998Z,11.37
2019-02-25T18:42:03.202Z,6.73
2019-02-25T18:44:36.563Z,5.67
2019-02-25T18:47:09.871Z,9.20
2019-02-25T18:49:43.180Z,8.93
2019-02-25T18:52:16.489Z,7.97
2019-02-25T18:54:49.893Z,7.37
2019-02-25T18:57:25.187Z,10.17
2019-02-25T18:59:59.365Z,7.50
2019-02-25T19:02:35.563Z,12.33
2019-02-25T19:05:13.023Z,13.53
2019-02-25T19:07:44.227Z,10.77
2019-02-25T19:10:20.092Z,15.40
2019-02-25T19:12:53.873Z,17.10
2019-02-25T19:15:28.747Z,23.13
2019-02-25T19:18:02.096Z,21.50
2019-02-25T19:20:36.714Z,20.90
2019-02-25T19:23:11.732Z,16.90
2019-02-25T19:25:45.759Z,18.37
2019-02-25T19:28:21.585Z,15.07
2019-02-25T19:30:54.452Z,17.83
2019-02-25T19:33:27.894Z,22.43
2019-02-25T19:36:02.974Z,27.47
2019-02-25T19:38:41.077Z,26.80
2019-02-25T19:41:15.123Z,40.73
2019-02-25T19:43:46.497Z,24.33
2019-02-25T19:46:19.861Z,18.33
2019-02-25T19:48:54.263Z,17.63
2019-02-25T19:51:29.769Z,23.60
2019-02-25T19:54:05.195Z,23.80
2019-02-25T19:56:37.419Z,19.87
2019-02-25T19:59:10.866Z,19.07
2019-02-25T20:01:44.180Z,19.20
2019-02-25T20:04:18.831Z,14.17
2019-02-25T20:06:53.752Z,14.40
2019-02-25T20:09:27.369Z,13.97
2019-02-25T20:12:01.843Z,14.00
2019-02-25T20:14:35.496Z,12.27
2019-02-25T20:17:08.877Z,12.17
2019-02-25T20:19:43.922Z,11.30
2019-02-25T20:22:18.438Z,10.13
2019-02-25T20:24:53.309Z,7.23
2019-02-25T20:27:26.971Z,6.67
2019-02-25T20:30:02.641Z,9.30
2019-02-25T20:32:36.467Z,10.30
2019-02-25T20:35:13.959Z,9.67
2019-02-25T20:37:51.145Z,9.83
2019-02-25T20:40:24.133Z,11.30
2019-02-25T20:42:58.727Z,14.10
2019-02-25T20:45:35.479Z,8.93
2019-02-25T20:48:09.103Z,15.27
2019-02-25T20:50:42.428Z,19.73
2019-02-25T20:53:15.790Z,23.80
2019-02-25T20:55:50.793Z,20.63
2019-02-25T20:58:24.190Z,14.33
2019-02-25T21:00:57.495Z,15.83
2019-02-25T21:03:30.780Z,14.73
2019-02-25T21:06:04.522Z,16.83
2019-02-25T21:08:39.862Z,15.37
2019-02-25T21:11:13.957Z,13.80
2019-02-25T21:13:47.883Z,9.57
2019-02-25T21:16:21.272Z,8.63
2019-02-25T21:18:55.032Z,7.97
2019-02-25T21:21:30.299Z,7.47
2019-02-25T21:24:04.245Z,6.27
2019-02-25T21:26:40.434Z,7.03
2019-02-25T21:29:13.681Z,7.73
2019-02-25T21:31:47.489Z,7.00
2019-02-25T21:34:24.423Z,9.23
2019-02-25T21:37:00.811Z,5.10
2019-02-25T21:39:36.663Z,5.47
2019-02-25T21:42:12.619Z,6.60
2019-02-25T21:44:46.441Z,8.83
2019-02-25T21:47:22.133Z,15.20
2019-02-25T21:49:58.750Z,37.43
2019-02-25T21:52:32.897Z,20.53
2019-02-25T21:55:07.574Z,10.10
2019-02-25T21:57:41.281Z,19.43
2019-02-25T22:00:27.128Z,22.00
2019-02-25T22:03:00.594Z,26.53
2019-02-25T22:05:33.889Z,23.00
2019-02-25T22:08:07.257Z,30.50
2019-02-25T22:10:42.023Z,29.27
2019-02-25T22:13:16.389Z,25.43
2019-02-25T22:15:50.584Z,12.67
2019-02-25T22:18:25.628Z,12.30
2019-02-25T22:20:58.901Z,13.33
2019-02-25T22:23:32.838Z,10.10
2019-02-25T22:26:07.366Z,12.33
2019-02-25T22:28:40.689Z,9.00
2019-02-25T22:31:15.818Z,7.20
2019-02-25T22:33:49.032Z,9.87
2019-02-25T22:36:22.317Z,7.10
2019-02-25T22:38:57.195Z,7.10
2019-02-25T22:41:30.638Z,7.40
2019-02-25T22:44:04.534Z,8.93
2019-02-25T22:46:39.703Z,8.40
2019-02-25T22:49:13.985Z,8.70
2019-02-25T22:51:51.682Z,10.33
2019-02-25T22:54:22.318Z,11.13
2019-02-25T22:56:55.652Z,8.73
2019-02-25T22:59:28.998Z,10.50
2019-02-25T23:02:02.540Z,8.53
2019-02-25T23:04:35.860Z,12.20
2019-02-25T23:07:11.075Z,8.73
2019-02-25T23:09:45.271Z,7.87
2019-02-25T23:12:20.154Z,11.30
2019-02-25T23:14:56.049Z,7.50
2019-02-25T23:17:33.083Z,6.43
2019-02-25T23:20:10.574Z,5.73
2019-02-25T23:22:43.855Z,6.60
2019-02-25T23:25:17.142Z,8.33
2019-02-25T23:27:51.667Z,6.37
2019-02-25T23:30:25.450Z,16.70
2019-02-25T23:32:58.743Z,17.70
2019-02-25T23:35:32.056Z,13.63
2019-02-25T23:38:05.329Z,12.03
2019-02-25T23:40:40.159Z,12.50
2019-02-25T23:43:14.946Z,11.07
2019-02-25T23:45:48.659Z,8.03
2019-02-25T23:48:21.959Z,5.63
2019-02-25T23:50:57.183Z,6.47
2019-02-25T23:53:31.119Z,8.67
2019-02-25T23:56:05.417Z,11.20
2019-02-25T23:58:42.322Z,13.30
